Time;durP1;ratioP1;P1;durP2;ratioP2;P2;SDS_P1;SDS_P2;PMS_P1;PMS_P2;Temp;Humidity;BMP_temperature;BMP_pressure;BME280_temperature;BME280_humidity;BME280_pressure;Samples;Min_cycle;Max_cycle;Signal;HPM_P1;HPM_P2
2021/12/24 00:01:14;;;;;;;3.57;2.50;;;5.70;99.90;;;;;;5084869;27;20193;-69
2021/12/24 00:03:41;;;;;;;5.23;2.83;;;5.70;99.90;;;;;;5117264;27;20208;-69
2021/12/24 00:06:09;;;;;;;5.97;2.47;;;5.70;99.90;;;;;;5123222;27;20264;-69
2021/12/24 00:08:36;;;;;;;5.97;2.47;;;5.70;99.90;;;;;;5103289;27;20688;-69
2021/12/24 00:11:05;;;;;;;7.53;2.57;;;5.70;99.90;;;;;;5086619;27;20243;-69
2021/12/24 00:35:30;;;;;;;4.87;2.77;;;5.90;99.90;;;;;;5080514;28;20281;-68
2021/12/24 00:38:01;;;;;;;6.20;2.37;;;5.80;99.90;;;;;;5109177;28;20189;-68
2021/12/24 00:40:28;;;;;;;4.43;2.43;;;5.80;99.90;;;;;;5080011;28;20186;-68
2021/12/24 00:42:56;;;;;;;6.30;2.60;;;5.80;99.90;;;;;;5105963;28;20202;-68
2021/12/24 00:45:30;;;;;;;10.57;2.80;;;5.70;99.90;;;;;;5091607;28;20190;-68
2021/12/24 00:48:02;;;;;;;9.07;2.60;;;5.70;99.90;;;;;;5071655;28;20198;-69
2021/12/24 00:50:47;;;;;;;4.87;2.37;;;5.70;99.90;;;;;;5095537;28;20522;-68
2021/12/24 00:56:12;;;;;;;3.77;2.40;;;5.70;99.90;;;;;;5071843;28;20190;-68
2021/12/24 00:58:39;;;;;;;4.77;2.37;;;5.70;99.90;;;;;;5090825;28;20205;-68
2021/12/24 01:01:08;;;;;;;4.13;2.10;;;5.70;99.90;;;;;;5096454;28;20194;-68
2021/12/24 01:03:35;;;;;;;4.97;2.00;;;5.70;99.90;;;;;;5080708;28;20175;-68
2021/12/24 01:06:03;;;;;;;9.10;1.80;;;5.70;99.90;;;;;;5074427;28;20187;-68
2021/12/24 01:08:30;;;;;;;5.70;2.30;;;5.70;99.90;;;;;;5085109;28;20210;-68
2021/12/24 01:11:02;;;;;;;9.30;1.87;;;5.70;99.90;;;;;;5089724;28;20186;-68
2021/12/24 01:13:29;;;;;;;4.73;2.20;;;5.80;99.90;;;;;;5076708;28;20764;-68
2021/12/24 01:16:02;;;;;;;8.27;2.50;;;5.70;99.90;;;;;;5079798;28;20296;-68
2021/12/24 01:23:55;;;;;;;5.30;2.00;;;5.70;99.90;;;;;;5078152;28;20190;-68
2021/12/24 01:26:53;;;;;;;6.40;2.17;;;5.70;99.90;;;;;;5075080;28;20185;-68
2021/12/24 01:42:46;;;;;;;2.67;1.87;;;5.50;99.90;;;;;;5067040;28;20262;-68
2021/12/24 01:45:20;;;;;;;3.33;2.00;;;5.50;99.90;;;;;;5069763;28;20804;-68
2021/12/24 01:47:49;;;;;;;2.70;1.90;;;5.50;99.90;;;;;;5063777;28;20210;-68
2021/12/24 01:50:17;;;;;;;6.73;2.17;;;5.50;99.90;;;;;;5065783;28;20219;-68
2021/12/24 01:52:44;;;;;;;4.63;1.83;;;5.50;99.90;;;;;;5065055;28;20182;-68
2021/12/24 01:55:11;;;;;;;4.57;2.03;;;5.60;99.90;;;;;;5079192;28;20231;-68
2021/12/24 01:57:41;;;;;;;7.83;2.10;;;5.50;99.90;;;;;;5052282;28;20198;-68
2021/12/24 02:00:13;;;;;;;5.90;2.30;;;5.60;99.90;;;;;;5071532;28;20673;-68
2021/12/24 02:02:39;;;;;;;4.33;2.13;;;5.60;99.90;;;;;;5064634;28;20650;-68
2021/12/24 02:05:07;;;;;;;8.40;2.53;;;5.50;99.90;;;;;;5080984;28;20234;-68
2021/12/24 02:07:33;;;;;;;2.70;1.83;;;5.40;99.90;;;;;;5065249;28;20435;-68
2021/12/24 02:09:59;;;;;;;2.97;1.80;;;5.40;99.90;;;;;;5065086;28;20202;-68
2021/12/24 02:12:26;;;;;;;4.27;2.20;;;5.30;99.90;;;;;;5059406;28;20198;-68
2021/12/24 02:14:58;;;;;;;6.00;2.60;;;5.30;99.90;;;;;;5065363;28;20191;-68
2021/12/24 02:28:46;;;;;;;4.20;2.20;;;5.40;99.90;;;;;;5059191;28;20210;-68
2021/12/24 02:31:18;;;;;;;8.00;2.30;;;5.40;99.90;;;;;;5059467;28;20191;-68
2021/12/24 02:33:45;;;;;;;6.97;2.67;;;5.50;99.90;;;;;;5064395;28;20189;-68
2021/12/24 02:36:12;;;;;;;4.50;2.17;;;5.50;99.90;;;;;;5063236;28;20251;-68
2021/12/24 02:38:39;;;;;;;10.07;2.30;;;5.50;99.90;;;;;;5062990;28;20657;-68
2021/12/24 02:41:08;;;;;;;5.50;2.13;;;5.40;99.90;;;;;;5061510;28;20187;-67
2021/12/24 02:43:35;;;;;;;7.30;2.27;;;5.40;99.90;;;;;;5065173;28;20191;-68
2021/12/24 02:47:06;;;;;;;5.10;2.33;;;5.40;99.90;;;;;;5062848;28;20190;-68
2021/12/24 02:54:15;;;;;;;4.97;2.10;;;5.40;99.90;;;;;;5080840;28;20222;-68
2021/12/24 02:56:49;;;;;;;5.83;2.40;;;5.50;99.90;;;;;;5066296;28;20239;-68
2021/12/24 02:59:17;;;;;;;7.57;2.37;;;5.50;99.90;;;;;;5058944;28;20199;-68
2021/12/24 03:01:47;;;;;;;3.73;2.20;;;5.50;99.90;;;;;;5060557;28;20218;-68
2021/12/24 03:04:14;;;;;;;7.97;2.37;;;5.50;99.90;;;;;;5063967;28;20186;-68
2021/12/24 03:06:49;;;;;;;3.40;1.97;;;5.50;99.90;;;;;;5067184;28;21238;-69
2021/12/24 03:09:18;;;;;;;5.40;2.23;;;5.40;99.90;;;;;;5063869;28;20236;-68
2021/12/24 03:11:47;;;;;;;4.60;2.00;;;5.50;99.90;;;;;;5065124;28;20218;-69
2021/12/24 03:14:18;;;;;;;7.80;2.27;;;5.50;99.90;;;;;;5081228;28;20286;-68
2021/12/24 03:16:50;;;;;;;6.73;2.10;;;5.60;99.90;;;;;;5064908;28;20264;-68
2021/12/24 03:19:17;;;;;;;5.03;2.50;;;5.50;99.90;;;;;;5055742;28;20217;-68
2021/12/24 03:24:35;;;;;;;3.90;2.50;;;5.60;99.90;;;;;;5066023;28;20210;-68
2021/12/24 03:27:04;;;;;;;5.30;2.27;;;5.50;99.90;;;;;;5061329;28;20902;-68
2021/12/24 03:29:31;;;;;;;4.67;2.17;;;5.60;99.90;;;;;;5076570;28;20194;-68
2021/12/24 03:31:58;;;;;;;4.77;2.30;;;5.60;99.90;;;;;;5058940;28;20195;-69
2021/12/24 03:34:25;;;;;;;4.53;2.40;;;5.70;99.90;;;;;;5077355;28;20545;-68
2021/12/24 03:36:52;;;;;;;6.83;2.03;;;5.70;99.90;;;;;;5064189;28;20321;-69
2021/12/24 03:39:20;;;;;;;3.73;2.07;;;5.60;99.90;;;;;;5064678;28;20704;-68
2021/12/24 03:41:47;;;;;;;4.53;2.23;;;5.60;99.90;;;;;;5073522;28;20183;-68
2021/12/24 03:44:16;;;;;;;5.03;2.43;;;5.60;99.90;;;;;;5064786;28;20661;-68
2021/12/24 03:49:19;;;;;;;5.10;2.20;;;5.60;99.90;;;;;;5056966;28;20272;-69
2021/12/24 03:51:58;;;;;;;4.73;2.50;;;5.60;99.90;;;;;;5061615;28;20643;-68
2021/12/24 03:57:09;;;;;;;3.17;2.10;;;5.60;99.90;;;;;;5080855;28;20674;-68
2021/12/24 03:59:35;;;;;;;4.33;1.90;;;5.60;99.90;;;;;;5043343;28;20183;-68
2021/12/24 04:02:02;;;;;;;6.53;2.13;;;5.60;99.90;;;;;;5059601;28;20301;-68
2021/12/24 04:04:28;;;;;;;3.47;2.03;;;5.70;99.90;;;;;;5061634;28;20248;-68
2021/12/24 04:06:55;;;;;;;6.00;2.10;;;5.50;99.90;;;;;;5060940;28;20925;-68
2021/12/24 04:09:24;;;;;;;3.67;2.00;;;5.60;99.90;;;;;;5063319;28;20285;-68
2021/12/24 04:11:50;;;;;;;8.40;2.27;;;5.60;99.90;;;;;;5063094;28;20273;-68
2021/12/24 04:14:16;;;;;;;10.47;2.50;;;5.60;99.90;;;;;;5064430;28;20198;-68
2021/12/24 04:16:42;;;;;;;5.33;2.10;;;5.60;99.90;;;;;;5060150;28;20289;-68
2021/12/24 04:27:17;;;;;;;4.53;2.03;;;5.70;99.90;;;;;;5060408;28;20242;-68
2021/12/24 04:29:43;;;;;;;4.60;2.13;;;5.70;99.90;;;;;;5073427;28;20252;-68
2021/12/24 04:32:18;;;;;;;3.03;1.70;;;5.70;99.90;;;;;;5061590;28;20222;-68
2021/12/24 04:34:48;;;;;;;7.40;2.43;;;5.70;99.90;;;;;;5057915;28;20219;-68
2021/12/24 04:51:08;;;;;;;2.87;1.80;;;5.80;99.90;;;;;;5063315;28;20195;-68
2021/12/24 05:02:06;;;;;;;5.07;1.93;;;5.80;99.90;;;;;;5065363;28;20187;-68
2021/12/24 05:04:35;;;;;;;4.17;2.43;;;5.80;99.90;;;;;;5077192;28;20850;-68
2021/12/24 05:07:20;;;;;;;3.93;2.30;;;5.90;99.90;;;;;;5065955;28;20214;-68
2021/12/24 05:09:46;;;;;;;6.47;2.17;;;5.90;99.90;;;;;;5069467;28;20611;-68
2021/12/24 05:12:13;;;;;;;6.03;2.20;;;5.90;99.90;;;;;;5066627;28;20198;-68
2021/12/24 05:14:39;;;;;;;4.90;2.20;;;5.80;99.90;;;;;;5069373;28;20193;-68
2021/12/24 05:17:34;;;;;;;8.60;2.00;;;5.90;99.90;;;;;;5068970;28;20183;-68
2021/12/24 05:22:37;;;;;;;7.93;2.37;;;5.90;99.90;;;;;;5067974;28;20632;-68
2021/12/24 05:25:04;;;;;;;4.20;2.20;;;5.80;99.90;;;;;;5067696;28;20304;-68
2021/12/24 05:27:30;;;;;;;3.83;2.23;;;5.80;99.90;;;;;;5062993;28;20214;-68
2021/12/24 05:29:56;;;;;;;6.00;2.47;;;5.80;99.90;;;;;;5079115;28;20285;-68
2021/12/24 05:32:23;;;;;;;4.93;2.17;;;5.90;99.90;;;;;;5084036;28;20191;-68
2021/12/24 05:34:49;;;;;;;7.30;2.20;;;5.90;99.90;;;;;;5065805;28;20504;-69
2021/12/24 05:37:16;;;;;;;6.77;2.30;;;5.90;99.90;;;;;;5061347;28;20214;-68
2021/12/24 05:39:42;;;;;;;4.43;2.10;;;5.90;99.90;;;;;;5074220;28;20636;-68
2021/12/24 05:42:09;;;;;;;7.33;2.20;;;6.00;99.90;;;;;;5061859;28;20215;-68
2021/12/24 05:44:36;;;;;;;7.50;2.40;;;6.00;99.90;;;;;;5064397;28;20744;-68
2021/12/24 05:47:03;;;;;;;6.27;2.47;;;6.00;99.90;;;;;;5059635;28;20650;-68
2021/12/24 05:49:30;;;;;;;6.40;2.13;;;6.00;99.90;;;;;;5067243;28;20304;-68
2021/12/24 05:51:57;;;;;;;6.70;2.67;;;6.00;99.90;;;;;;5075488;28;20555;-68
2021/12/24 05:54:23;;;;;;;5.20;2.17;;;6.00;99.90;;;;;;5060661;28;20954;-68
2021/12/24 05:56:49;;;;;;;5.40;2.13;;;6.00;99.90;;;;;;5082164;28;20886;-68
2021/12/24 05:59:15;;;;;;;7.07;2.10;;;6.00;99.90;;;;;;5063462;28;20191;-68
2021/12/24 06:01:42;;;;;;;3.73;1.93;;;6.00;99.90;;;;;;5068485;28;20546;-68
2021/12/24 06:04:08;;;;;;;8.63;2.40;;;6.10;99.90;;;;;;5067274;28;20281;-68
2021/12/24 06:06:35;;;;;;;5.87;2.50;;;6.10;99.90;;;;;;5062717;28;20187;-69
2021/12/24 06:09:01;;;;;;;4.00;2.33;;;6.20;99.90;;;;;;5065620;28;20292;-66
2021/12/24 06:11:27;;;;;;;4.37;2.20;;;6.30;99.90;;;;;;5066863;28;20191;-67
2021/12/24 06:13:55;;;;;;;5.20;2.53;;;6.30;99.90;;;;;;5060443;28;20179;-68
2021/12/24 06:16:22;;;;;;;6.97;2.67;;;6.40;99.90;;;;;;5066727;28;20183;-67
2021/12/24 06:18:49;;;;;;;4.93;2.17;;;6.40;99.90;;;;;;5066340;28;20775;-67
2021/12/24 06:21:16;;;;;;;3.53;2.23;;;6.40;99.90;;;;;;5067082;28;20191;-68
2021/12/24 06:23:44;;;;;;;5.70;2.23;;;6.60;99.90;;;;;;5068248;28;20273;-68
2021/12/24 06:26:12;;;;;;;5.97;2.67;;;6.60;99.90;;;;;;5066556;28;20194;-68
2021/12/24 06:28:38;;;;;;;8.97;2.50;;;6.60;99.90;;;;;;5058826;28;20210;-68
2021/12/24 06:31:05;;;;;;;7.53;2.90;;;6.70;99.90;;;;;;5050163;28;20243;-69
2021/12/24 06:33:32;;;;;;;5.33;2.80;;;6.70;99.90;;;;;;5049950;28;20692;-69
2021/12/24 06:35:58;;;;;;;7.23;3.13;;;6.80;99.90;;;;;;5079920;28;20190;-69
2021/12/24 06:38:25;;;;;;;3.40;2.40;;;6.80;99.90;;;;;;5069063;28;20194;-69
2021/12/24 06:40:52;;;;;;;5.57;2.60;;;6.90;99.90;;;;;;5066445;28;20300;-69
2021/12/24 06:43:19;;;;;;;7.03;2.50;;;6.90;99.90;;;;;;5058308;28;20202;-69
2021/12/24 06:45:47;;;;;;;7.60;2.87;;;7.00;99.90;;;;;;5067997;28;20197;-69
2021/12/24 06:48:14;;;;;;;4.03;2.50;;;7.00;99.90;;;;;;5082908;28;20248;-68
2021/12/24 06:50:40;;;;;;;8.00;2.93;;;7.10;99.90;;;;;;5067374;28;20724;-65
2021/12/24 06:53:06;;;;;;;5.10;2.70;;;7.10;99.90;;;;;;5066495;28;21048;-65
2021/12/24 06:55:33;;;;;;;3.60;2.70;;;7.20;99.90;;;;;;5057682;28;20195;-66
2021/12/24 06:57:59;;;;;;;6.50;2.73;;;7.20;99.90;;;;;;5065422;28;20198;-66
2021/12/24 07:00:26;;;;;;;4.00;2.90;;;7.30;99.90;;;;;;5066693;28;20528;-65
2021/12/24 07:02:53;;;;;;;7.53;2.67;;;7.40;99.90;;;;;;5064439;28;20194;-66
2021/12/24 07:05:19;;;;;;;3.83;2.63;;;7.50;99.90;;;;;;5063874;28;20198;-68
2021/12/24 07:07:46;;;;;;;4.30;2.77;;;7.60;99.90;;;;;;5053272;28;20207;-68
2021/12/24 07:10:13;;;;;;;5.53;3.20;;;7.60;99.90;;;;;;5062468;28;20756;-66
2021/12/24 07:12:42;;;;;;;4.13;2.70;;;7.60;99.90;;;;;;5063131;28;20275;-69
2021/12/24 07:15:09;;;;;;;3.33;2.70;;;7.60;99.90;;;;;;5065549;28;20895;-69
2021/12/24 07:17:36;;;;;;;7.97;3.10;;;7.60;99.90;;;;;;5066661;28;20187;-69
2021/12/24 07:20:04;;;;;;;4.00;2.87;;;7.70;99.90;;;;;;5081037;28;20238;-69
2021/12/24 07:22:30;;;;;;;3.77;2.60;;;7.70;99.90;;;;;;5044150;28;20602;-68
2021/12/24 07:24:57;;;;;;;9.00;2.60;;;7.80;99.90;;;;;;5065606;28;20828;-68
2021/12/24 07:27:23;;;;;;;7.37;2.80;;;7.80;99.90;;;;;;5082094;28;20202;-66
2021/12/24 07:29:49;;;;;;;6.37;3.00;;;7.90;99.90;;;;;;5068657;28;20187;-68
2021/12/24 07:32:16;;;;;;;8.00;2.60;;;8.00;99.90;;;;;;5082171;28;20190;-66
2021/12/24 07:34:42;;;;;;;8.03;2.90;;;8.10;99.90;;;;;;5063779;28;20190;-68
2021/12/24 07:37:08;;;;;;;4.10;2.63;;;8.10;99.90;;;;;;5064552;28;20214;-68
2021/12/24 07:39:35;;;;;;;5.47;2.67;;;8.10;99.90;;;;;;5072503;28;20256;-68
2021/12/24 07:42:01;;;;;;;6.57;2.77;;;8.10;99.90;;;;;;5060643;28;20219;-65
2021/12/24 07:44:29;;;;;;;3.93;2.57;;;8.20;99.90;;;;;;5064437;28;20186;-66
2021/12/24 07:47:00;;;;;;;3.83;2.43;;;8.20;99.90;;;;;;5065305;28;20384;-66
2021/12/24 07:49:30;;;;;;;5.30;2.97;;;8.20;99.90;;;;;;5065173;28;20198;-69
2021/12/24 07:54:27;;;;;;;29.27;3.30;;;8.30;99.90;;;;;;5064980;28;20240;-67
2021/12/24 07:56:54;;;;;;;9.03;2.70;;;8.30;99.90;;;;;;5080825;28;20273;-67
2021/12/24 07:59:21;;;;;;;4.77;2.80;;;8.30;99.90;;;;;;5056329;28;20194;-67
2021/12/24 08:01:48;;;;;;;8.90;2.90;;;8.30;99.90;;;;;;5081660;28;20197;-69
2021/12/24 08:04:15;;;;;;;7.60;2.50;;;8.30;99.90;;;;;;5061459;28;20272;-67
2021/12/24 08:06:42;;;;;;;3.20;2.40;;;8.40;99.90;;;;;;5064602;28;20186;-67
2021/12/24 08:09:08;;;;;;;7.93;2.97;;;8.40;99.90;;;;;;5061631;28;20223;-67
2021/12/24 08:11:36;;;;;;;3.43;2.90;;;8.40;99.90;;;;;;5073410;28;20654;-69
2021/12/24 08:14:05;;;;;;;6.27;2.93;;;8.50;99.90;;;;;;5060254;28;20187;-69
2021/12/24 08:16:33;;;;;;;5.37;2.97;;;8.50;99.90;;;;;;5079355;28;20661;-67
2021/12/24 08:19:00;;;;;;;4.97;3.23;;;8.50;99.90;;;;;;5046546;28;20303;-66
2021/12/24 08:21:27;;;;;;;3.73;2.37;;;8.60;99.90;;;;;;5057377;28;20191;-66
2021/12/24 08:23:54;;;;;;;4.33;2.80;;;8.60;99.90;;;;;;5081547;28;20190;-66
2021/12/24 08:26:22;;;;;;;3.00;2.40;;;8.70;99.90;;;;;;5065979;28;20277;-66
2021/12/24 08:28:50;;;;;;;4.50;2.70;;;8.80;99.90;;;;;;5080545;28;20241;-66
2021/12/24 08:31:18;;;;;;;3.50;2.40;;;8.80;99.90;;;;;;5064886;28;20247;-66
2021/12/24 08:33:44;;;;;;;5.10;2.50;;;8.80;99.90;;;;;;5065948;28;20239;-66
2021/12/24 08:36:11;;;;;;;6.70;2.90;;;8.90;99.90;;;;;;5063663;28;20198;-66
2021/12/24 08:38:39;;;;;;;3.40;2.40;;;8.90;99.90;;;;;;5065680;28;20738;-66
2021/12/24 08:41:06;;;;;;;5.33;3.47;;;8.90;99.90;;;;;;5062653;28;20290;-66
2021/12/24 08:43:33;;;;;;;4.23;3.07;;;8.90;99.90;;;;;;5068575;28;20343;-68
2021/12/24 08:46:00;;;;;;;4.57;2.70;;;9.00;99.90;;;;;;5067214;28;20186;-68
2021/12/24 08:48:26;;;;;;;7.10;3.00;;;9.00;99.90;;;;;;5084900;28;20195;-68
2021/12/24 08:50:53;;;;;;;5.40;3.10;;;9.10;99.90;;;;;;5069679;28;20262;-66
2021/12/24 08:53:20;;;;;;;3.70;3.00;;;9.20;99.90;;;;;;5067810;28;20622;-66
2021/12/24 08:55:46;;;;;;;7.67;2.90;;;9.20;99.90;;;;;;5068229;28;20202;-66
2021/12/24 08:58:13;;;;;;;5.93;2.47;;;9.30;99.90;;;;;;5065625;28;20294;-66
2021/12/24 09:00:39;;;;;;;7.80;2.53;;;9.40;99.90;;;;;;5066176;28;20571;-68
2021/12/24 09:03:06;;;;;;;5.97;2.83;;;9.60;99.90;;;;;;5064449;28;20281;-66
2021/12/24 09:05:32;;;;;;;5.60;2.60;;;9.70;99.90;;;;;;5084382;28;20195;-69
2021/12/24 09:07:58;;;;;;;6.67;2.90;;;9.90;99.90;;;;;;5067804;28;20221;-69
2021/12/24 09:10:25;;;;;;;4.87;2.33;;;10.10;99.90;;;;;;5081534;28;20692;-67
2021/12/24 09:12:52;;;;;;;5.50;2.50;;;10.20;99.90;;;;;;5065758;28;20244;-67
2021/12/24 09:15:19;;;;;;;5.13;2.70;;;10.20;99.90;;;;;;5083761;28;20217;-66
2021/12/24 09:17:47;;;;;;;8.17;3.07;;;10.30;99.90;;;;;;5067921;28;20195;-68
2021/12/24 09:20:26;;;;;;;7.07;3.50;;;10.30;99.90;;;;;;5066132;28;20252;-66
2021/12/24 09:22:55;;;;;;;9.23;2.90;;;10.30;99.90;;;;;;5062871;28;20206;-66
2021/12/24 09:25:23;;;;;;;5.53;3.10;;;10.30;99.90;;;;;;5066162;28;20282;-66
2021/12/24 09:27:50;;;;;;;4.13;2.73;;;10.30;99.90;;;;;;5067881;28;20309;-69
2021/12/24 09:30:17;;;;;;;5.73;2.70;;;10.30;99.90;;;;;;5063626;28;20250;-69
2021/12/24 09:32:44;;;;;;;5.43;3.03;;;10.30;99.90;;;;;;5082669;28;20186;-69
2021/12/24 09:35:13;;;;;;;2.83;2.20;;;10.30;99.90;;;;;;5054173;28;20218;-66
2021/12/24 09:37:41;;;;;;;8.73;2.63;;;10.30;99.90;;;;;;5060297;28;20228;-66
2021/12/24 09:40:12;;;;;;;4.70;2.60;;;10.30;99.90;;;;;;5064822;28;20198;-69
2021/12/24 09:42:39;;;;;;;5.27;2.60;;;10.30;99.90;;;;;;5045063;28;20295;-69
2021/12/24 09:45:08;;;;;;;5.93;3.03;;;10.40;99.90;;;;;;5065336;28;20190;-66
2021/12/24 09:47:35;;;;;;;6.67;2.60;;;10.50;99.90;;;;;;5084189;28;20222;-66
2021/12/24 09:50:04;;;;;;;7.57;2.63;;;10.60;99.90;;;;;;5082622;28;20635;-66
2021/12/24 09:52:31;;;;;;;3.87;2.70;;;10.80;99.90;;;;;;5067404;28;20274;-66
2021/12/24 09:55:09;;;;;;;6.97;2.43;;;10.90;99.90;;;;;;5058597;28;20186;-66
2021/12/24 09:57:36;;;;;;;5.03;2.70;;;11.00;99.90;;;;;;5062497;28;20682;-69
2021/12/24 10:00:07;;;;;;;6.23;2.30;;;11.20;99.90;;;;;;5063546;28;20202;-68
2021/12/24 10:02:41;;;;;;;4.47;2.17;;;11.30;99.90;;;;;;5063724;28;20195;-68
2021/12/24 10:05:40;;;;;;;3.53;2.43;;;11.30;99.90;;;;;;5057685;28;20655;-69
2021/12/24 10:08:20;;;;;;;6.40;2.40;;;11.20;99.90;;;;;;5059362;28;20920;-69
2021/12/24 10:11:00;;;;;;;4.33;2.23;;;11.20;99.90;;;;;;5078371;28;20247;-69
2021/12/24 10:13:36;;;;;;;3.67;2.40;;;11.20;99.90;;;;;;5063828;28;20212;-69
2021/12/24 10:16:22;;;;;;;6.43;2.33;;;11.30;99.90;;;;;;5063255;28;20178;-69
2021/12/24 10:19:00;;;;;;;4.13;2.30;;;11.50;99.90;;;;;;5063142;28;20215;-69
2021/12/24 10:21:30;;;;;;;6.23;2.30;;;11.60;99.90;;;;;;5063125;28;20607;-69
2021/12/24 10:24:18;;;;;;;6.13;2.33;;;11.70;99.90;;;;;;5060717;28;20639;-69
2021/12/24 10:26:57;;;;;;;4.07;2.20;;;11.80;99.90;;;;;;5045444;28;20191;-69
2021/12/24 10:29:42;;;;;;;5.17;2.60;;;11.80;99.90;;;;;;5061066;28;20211;-69
2021/12/24 10:32:18;;;;;;;6.87;2.70;;;11.80;99.90;;;;;;5082458;28;20752;-69
2021/12/24 10:34:46;;;;;;;3.60;2.27;;;12.00;99.90;;;;;;5060973;28;20218;-70
2021/12/24 10:37:23;;;;;;;4.87;2.03;;;12.20;99.90;;;;;;5065504;28;20202;-69
2021/12/24 10:40:00;;;;;;;3.60;2.10;;;12.30;99.90;;;;;;5059246;28;20195;-69
2021/12/24 10:42:40;;;;;;;5.03;2.77;;;12.60;99.90;;;;;;5061353;28;20275;-69
2021/12/24 10:45:22;;;;;;;3.90;2.70;;;12.20;99.90;;;;;;5058258;28;20190;-69
2021/12/24 10:47:49;;;;;;;4.37;2.70;;;14.10;99.90;;;;;;5058632;28;20663;-69
2021/12/24 10:53:19;;;;;;;4.67;2.50;;;13.40;99.90;;;;;;5055707;28;20191;-69
2021/12/24 10:55:54;;;;;;;14.73;3.23;;;12.60;99.90;;;;;;5056362;28;20199;-69
2021/12/24 10:58:24;;;;;;;4.73;2.60;;;12.10;99.90;;;;;;5062551;28;20191;-69
2021/12/24 11:00:59;;;;;;;4.87;3.03;;;12.00;99.90;;;;;;5061164;28;20207;-69
2021/12/24 11:03:32;;;;;;;4.20;3.27;;;12.00;99.90;;;;;;5069404;28;20527;-69
2021/12/24 11:06:15;;;;;;;5.77;3.03;;;11.90;99.90;;;;;;5063750;28;20297;-69
2021/12/24 11:08:43;;;;;;;9.27;3.20;;;11.90;99.90;;;;;;5079425;28;20214;-69
2021/12/24 11:11:17;;;;;;;12.50;3.07;;;11.70;99.90;;;;;;5059440;28;20209;-69
2021/12/24 11:13:47;;;;;;;5.03;2.70;;;11.50;99.90;;;;;;5064317;28;20188;-70
2021/12/24 11:16:22;;;;;;;8.53;3.00;;;11.40;99.90;;;;;;5040960;28;20203;-70
2021/12/24 11:19:02;;;;;;;5.67;3.10;;;11.50;99.90;;;;;;5065245;28;20194;-69
2021/12/24 11:21:32;;;;;;;5.30;2.93;;;11.80;99.90;;;;;;5056684;28;20273;-69
2021/12/24 11:23:58;;;;;;;5.73;2.60;;;12.00;99.90;;;;;;5059010;28;20328;-69
2021/12/24 11:26:28;;;;;;;5.60;2.93;;;12.10;99.90;;;;;;5056968;28;20854;-69
2021/12/24 11:28:56;;;;;;;4.83;2.77;;;12.00;99.90;;;;;;5064613;28;20211;-69
2021/12/24 11:31:27;;;;;;;7.77;2.90;;;11.80;99.90;;;;;;5063560;28;20755;-69
2021/12/24 11:33:55;;;;;;;5.67;2.77;;;11.60;99.90;;;;;;5080710;28;20526;-67
2021/12/24 11:36:25;;;;;;;10.23;3.23;;;11.50;99.90;;;;;;5061142;28;20199;-69
2021/12/24 11:38:59;;;;;;;5.83;2.57;;;11.40;99.90;;;;;;5064330;28;20983;-69
2021/12/24 11:41:31;;;;;;;5.03;2.80;;;11.20;99.90;;;;;;5062867;28;20198;-67
2021/12/24 11:44:01;;;;;;;4.53;2.90;;;11.20;99.90;;;;;;5059082;28;20191;-69
2021/12/24 11:46:28;;;;;;;4.50;2.40;;;11.30;99.90;;;;;;5075636;28;20225;-69
2021/12/24 11:48:56;;;;;;;6.07;2.70;;;11.50;99.90;;;;;;5076682;28;20300;-69
2021/12/24 11:51:25;;;;;;;3.23;2.00;;;11.60;99.90;;;;;;5068232;28;20265;-67
2021/12/24 11:53:59;;;;;;;4.40;2.20;;;11.70;99.90;;;;;;5061000;28;20197;-67
2021/12/24 11:56:26;;;;;;;5.57;2.30;;;11.80;99.90;;;;;;5081810;28;20186;-68
2021/12/24 11:58:58;;;;;;;3.73;2.13;;;11.90;99.90;;;;;;5065149;28;20210;-67
2021/12/24 12:01:36;;;;;;;5.40;2.40;;;11.90;99.90;;;;;;5065158;28;20218;-69
2021/12/24 12:04:23;;;;;;;3.20;1.80;;;12.00;99.90;;;;;;5052408;28;20236;-69
2021/12/24 12:06:51;;;;;;;5.87;1.90;;;12.00;99.90;;;;;;5079899;28;20198;-66
2021/12/24 12:09:17;;;;;;;3.10;1.50;;;12.00;99.90;;;;;;5065461;28;20225;-67
2021/12/24 12:11:56;;;;;;;3.60;1.70;;;12.00;99.90;;;;;;5061395;28;20194;-67
2021/12/24 12:14:25;;;;;;;7.43;1.60;;;11.90;99.90;;;;;;5070870;28;20193;-66
2021/12/24 12:16:55;;;;;;;2.37;1.40;;;11.90;99.90;;;;;;5060474;28;20240;-69
2021/12/24 12:19:37;;;;;;;3.00;1.50;;;11.90;99.90;;;;;;5057617;28;20758;-69
2021/12/24 12:25:31;;;;;;;3.67;2.00;;;11.90;99.90;;;;;;5063710;28;20191;-69
2021/12/24 12:28:03;;;;;;;3.07;1.67;;;11.90;99.90;;;;;;5076811;28;20753;-69
2021/12/24 12:30:46;;;;;;;2.00;1.30;;;11.80;99.90;;;;;;5080228;28;20187;-67
2021/12/24 12:33:15;;;;;;;3.23;1.93;;;11.80;99.90;;;;;;5063555;28;20190;-69
2021/12/24 12:35:56;;;;;;;4.47;1.90;;;11.80;99.90;;;;;;5080842;28;20879;-67
2021/12/24 12:38:43;;;;;;;2.73;1.87;;;11.80;99.90;;;;;;5065715;28;20259;-67
2021/12/24 12:41:31;;;;;;;3.37;1.53;;;11.80;99.90;;;;;;5056857;28;20194;-69
2021/12/24 12:44:01;;;;;;;1.80;1.30;;;11.80;99.90;;;;;;5040601;28;20658;-69
2021/12/24 12:46:33;;;;;;;2.07;1.10;;;11.80;99.90;;;;;;5064635;28;20911;-69
2021/12/24 12:49:03;;;;;;;2.17;1.30;;;11.70;99.90;;;;;;5039129;28;20634;-69
2021/12/24 12:52:16;;;;;;;2.07;1.30;;;11.70;99.90;;;;;;5061481;28;20199;-67
2021/12/24 12:54:56;;;;;;;1.63;1.23;;;11.70;99.90;;;;;;5048286;28;20183;-69
2021/12/24 12:57:37;;;;;;;2.90;1.10;;;11.60;99.90;;;;;;5081143;28;20193;-69
2021/12/24 13:00:20;;;;;;;2.03;1.00;;;11.60;99.90;;;;;;5076962;28;20186;-69
2021/12/24 13:05:42;;;;;;;1.30;0.90;;;11.60;99.90;;;;;;5065420;28;20281;-69
2021/12/24 13:08:14;;;;;;;2.07;1.10;;;11.50;99.90;;;;;;5064439;28;20198;-69
2021/12/24 13:10:53;;;;;;;6.73;1.87;;;11.50;99.90;;;;;;5065230;28;20716;-69
2021/12/24 13:13:19;;;;;;;2.07;1.00;;;11.50;99.90;;;;;;5058693;28;20568;-69
2021/12/24 13:15:47;;;;;;;1.97;1.07;;;11.40;99.90;;;;;;5059921;28;20667;-69
2021/12/24 13:18:34;;;;;;;5.43;1.30;;;11.40;99.90;;;;;;5060598;28;20217;-69
2021/12/24 13:23:37;;;;;;;1.37;1.00;;;11.40;99.90;;;;;;5064444;28;20686;-69
2021/12/24 13:26:20;;;;;;;1.40;0.97;;;11.30;99.90;;;;;;5060547;28;20217;-69
2021/12/24 13:29:12;;;;;;;1.80;0.80;;;11.20;99.90;;;;;;5066281;28;20360;-69
2021/12/24 13:31:42;;;;;;;0.97;0.80;;;11.20;99.90;;;;;;5051530;28;20195;-68
2021/12/24 13:34:16;;;;;;;1.53;0.87;;;11.20;99.90;;;;;;5085496;28;20198;-69
2021/12/24 13:36:43;;;;;;;2.07;0.80;;;11.10;99.90;;;;;;5065303;28;21022;-68
2021/12/24 13:39:22;;;;;;;1.20;1.00;;;11.10;99.90;;;;;;5067936;28;20534;-68
2021/12/24 13:42:04;;;;;;;1.40;0.87;;;11.10;99.90;;;;;;5066873;28;20175;-68
2021/12/24 13:44:34;;;;;;;1.17;0.93;;;11.00;99.90;;;;;;5068118;28;20252;-68
2021/12/24 13:47:17;;;;;;;1.20;0.80;;;11.00;99.90;;;;;;5067776;28;20214;-69
2021/12/24 13:55:32;;;;;;;3.37;1.00;;;10.90;99.90;;;;;;5063698;28;20187;-68
2021/12/24 13:58:07;;;;;;;2.10;1.00;;;10.80;99.90;;;;;;5076219;28;20179;-69
2021/12/24 14:00:39;;;;;;;3.87;1.27;;;10.70;99.90;;;;;;5064603;28;20213;-68
2021/12/24 14:03:10;;;;;;;1.87;1.17;;;10.70;99.90;;;;;;5067902;28;20218;-69
2021/12/24 14:05:54;;;;;;;2.83;1.30;;;10.60;99.90;;;;;;5067115;28;20241;-68
2021/12/24 14:08:25;;;;;;;3.57;0.93;;;10.50;99.90;;;;;;5079620;28;20230;-68
2021/12/24 14:11:20;;;;;;;2.90;0.93;;;10.60;99.90;;;;;;5067931;28;20206;-68
2021/12/24 14:13:56;;;;;;;1.30;1.00;;;10.50;99.90;;;;;;5061538;28;20183;-68
2021/12/24 14:19:28;;;;;;;2.00;1.20;;;10.40;99.90;;;;;;5058236;28;20211;-68
2021/12/24 14:22:13;;;;;;;1.97;1.03;;;10.30;99.90;;;;;;5061379;28;20619;-68
2021/12/24 14:25:01;;;;;;;3.83;1.13;;;10.30;99.90;;;;;;5062748;28;20183;-68
2021/12/24 14:27:31;;;;;;;2.13;1.03;;;10.30;99.90;;;;;;5065635;28;20204;-68
2021/12/24 14:30:16;;;;;;;3.13;1.03;;;10.20;99.90;;;;;;5077832;28;20195;-68
2021/12/24 14:32:49;;;;;;;1.10;0.93;;;10.10;99.90;;;;;;5066770;28;20198;-68
2021/12/24 14:35:26;;;;;;;1.87;1.00;;;10.10;99.90;;;;;;5066921;28;20190;-68
2021/12/24 14:38:05;;;;;;;2.23;1.20;;;10.10;99.90;;;;;;5064380;28;20183;-68
2021/12/24 14:40:35;;;;;;;1.83;1.10;;;10.00;99.90;;;;;;5078825;28;20194;-68
2021/12/24 14:43:14;;;;;;;2.57;1.20;;;10.00;99.90;;;;;;5064554;28;20202;-69
2021/12/24 14:45:44;;;;;;;1.50;1.07;;;9.90;99.90;;;;;;5081156;28;20191;-68
2021/12/24 14:48:21;;;;;;;2.10;1.17;;;9.90;99.90;;;;;;5066559;28;20240;-68
2021/12/24 14:51:02;;;;;;;4.63;1.23;;;9.80;99.90;;;;;;5057437;28;20215;-68
2021/12/24 14:53:37;;;;;;;4.83;1.40;;;9.80;99.90;;;;;;5062316;28;20182;-68
2021/12/24 14:56:08;;;;;;;2.80;1.03;;;9.70;99.90;;;;;;5062339;28;20198;-68
2021/12/24 14:59:04;;;;;;;2.70;1.27;;;9.70;99.90;;;;;;5059938;28;20194;-68
2021/12/24 15:01:42;;;;;;;3.97;1.40;;;9.60;99.90;;;;;;5083088;28;20178;-68
2021/12/24 15:04:13;;;;;;;1.70;1.30;;;9.50;99.90;;;;;;5072926;28;20187;-68
2021/12/24 15:06:49;;;;;;;3.00;1.27;;;9.40;99.90;;;;;;5064694;28;20524;-68
2021/12/24 15:09:19;;;;;;;2.60;1.53;;;9.30;99.90;;;;;;5065049;28;20206;-68
2021/12/24 15:11:46;;;;;;;4.03;2.00;;;9.30;99.90;;;;;;5081630;28;20190;-68
2021/12/24 15:14:14;;;;;;;2.50;1.90;;;9.40;99.90;;;;;;5064235;28;20209;-68
2021/12/24 15:16:49;;;;;;;2.60;1.97;;;9.40;99.90;;;;;;5065050;28;20785;-66